Time;durP1;ratioP1;P1;durP2;ratioP2;P2;SDS_P1;SDS_P2;PMS_P1;PMS_P2;Temp;Humidity;BMP_temperature;BMP_pressure;BME280_temperature;BME280_humidity;BME280_pressure;Samples;Min_cycle;Max_cycle;Signal;HPM_P1;HPM_P2
2022/08/10 00:01:49;;;;;;;2.97;2.77;;;;;;;;;;5113617;28;20536;-59
2022/08/10 00:04:16;;;;;;;2.53;2.20;;;;;;;;;;5113453;28;20457;-59
2022/08/10 00:06:43;;;;;;;2.80;2.40;;;;;;;;;;5113752;28;20445;-59
2022/08/10 00:09:11;;;;;;;4.53;3.13;;;;;;;;;;5113649;28;20452;-59
2022/08/10 00:11:38;;;;;;;2.57;2.37;;;;;;;;;;5113447;28;21033;-59
2022/08/10 00:14:05;;;;;;;6.33;2.80;;;;;;;;;;5113394;28;20832;-59
2022/08/10 00:16:32;;;;;;;2.50;2.30;;;;;;;;;;5113411;28;20450;-59
2022/08/10 00:18:59;;;;;;;2.90;2.30;;;;;;;;;;5113601;28;20449;-59
2022/08/10 00:21:26;;;;;;;2.47;2.27;;;;;;;;;;5113543;28;20445;-59
2022/08/10 00:23:53;;;;;;;3.33;2.60;;;;;;;;;;5113414;28;20813;-59
2022/08/10 00:26:21;;;;;;;2.90;2.70;;;;;;;;;;5113355;28;20450;-59
2022/08/10 00:28:48;;;;;;;9.30;2.90;;;;;;;;;;5113282;28;20445;-59
2022/08/10 00:31:15;;;;;;;2.77;2.57;;;;;;;;;;5116995;28;20448;-59
2022/08/10 00:33:42;;;;;;;2.27;2.17;;;;;;;;;;5117737;28;20509;-59
2022/08/10 00:36:09;;;;;;;3.03;2.57;;;;;;;;;;5117528;28;20944;-59
2022/08/10 00:38:36;;;;;;;3.13;2.83;;;;;;;;;;5117579;28;20962;-60
2022/08/10 00:41:03;;;;;;;3.67;2.97;;;;;;;;;;5117419;28;20880;-59
2022/08/10 00:43:32;;;;;;;5.00;2.47;;;;;;;;;;5117266;28;20453;-59
2022/08/10 00:45:59;;;;;;;2.70;2.50;;;;;;;;;;5117589;28;20793;-59
2022/08/10 00:48:26;;;;;;;2.50;2.30;;;;;;;;;;5117154;28;20552;-59
2022/08/10 00:50:53;;;;;;;3.20;2.40;;;;;;;;;;5117400;28;20805;-59
2022/08/10 00:53:20;;;;;;;4.10;2.83;;;;;;;;;;5117139;28;20487;-59
2022/08/10 00:55:47;;;;;;;4.33;2.83;;;;;;;;;;5117139;28;20446;-59
2022/08/10 00:58:14;;;;;;;2.60;2.40;;;;;;;;;;5116997;28;20476;-60
2022/08/10 01:00:42;;;;;;;4.73;2.67;;;;;;;;;;5117285;28;20445;-59
2022/08/10 01:03:09;;;;;;;2.40;2.20;;;;;;;;;;5117117;28;20450;-59
2022/08/10 01:05:39;;;;;;;3.50;2.70;;;;;;;;;;5117070;28;20806;-59
2022/08/10 01:08:11;;;;;;;2.90;2.20;;;;;;;;;;5116856;28;20466;-59
2022/08/10 01:10:55;;;;;;;4.23;3.13;;;;;;;;;;5116757;28;20444;-59
2022/08/10 01:13:25;;;;;;;5.97;2.30;;;;;;;;;;5116859;28;20854;-59
2022/08/10 01:15:57;;;;;;;2.80;2.60;;;;;;;;;;5116676;28;21004;-59
2022/08/10 01:18:30;;;;;;;5.33;2.60;;;;;;;;;;5116859;28;20958;-59
2022/08/10 01:21:09;;;;;;;3.40;2.33;;;;;;;;;;5116652;28;20936;-60
2022/08/10 01:24:04;;;;;;;2.70;2.50;;;;;;;;;;5116731;28;20478;-59
2022/08/10 01:26:37;;;;;;;4.60;2.90;;;;;;;;;;5116654;28;20541;-60
2022/08/10 01:29:22;;;;;;;3.80;2.63;;;;;;;;;;5116546;28;20416;-59
2022/08/10 01:31:54;;;;;;;2.80;2.60;;;;;;;;;;5102991;28;20783;-59
2022/08/10 01:34:23;;;;;;;4.37;2.70;;;;;;;;;;5116490;28;20517;-59
2022/08/10 01:36:51;;;;;;;3.20;2.90;;;;;;;;;;5116548;28;20455;-59
2022/08/10 01:39:22;;;;;;;4.93;2.77;;;;;;;;;;5116372;28;20441;-60
2022/08/10 01:41:51;;;;;;;3.20;2.63;;;;;;;;;;5116223;28;20951;-59
2022/08/10 01:44:20;;;;;;;2.83;2.60;;;;;;;;;;5116565;28;20515;-59
2022/08/10 01:46:48;;;;;;;6.60;3.00;;;;;;;;;;5116483;28;20450;-59
2022/08/10 01:49:17;;;;;;;2.70;2.40;;;;;;;;;;5116426;28;20881;-59
2022/08/10 01:51:47;;;;;;;3.57;2.83;;;;;;;;;;5116150;28;20972;-59
2022/08/10 01:54:16;;;;;;;3.30;3.00;;;;;;;;;;5115883;28;20448;-60
2022/08/10 01:56:44;;;;;;;3.07;2.77;;;;;;;;;;5116178;28;20452;-59
2022/08/10 01:59:12;;;;;;;3.13;2.70;;;;;;;;;;5116030;28;20515;-59
2022/08/10 02:01:40;;;;;;;3.87;3.10;;;;;;;;;;5115963;28;20420;-59
2022/08/10 02:04:11;;;;;;;3.07;2.63;;;;;;;;;;5115856;28;20453;-59
2022/08/10 02:06:42;;;;;;;3.23;2.93;;;;;;;;;;5115784;28;20445;-59
2022/08/10 02:09:11;;;;;;;3.53;2.47;;;;;;;;;;5115704;28;20449;-59
2022/08/10 02:11:39;;;;;;;5.20;2.90;;;;;;;;;;5115623;28;20944;-59
2022/08/10 02:14:06;;;;;;;4.50;2.70;;;;;;;;;;5115803;28;20476;-59
2022/08/10 02:16:34;;;;;;;2.90;2.70;;;;;;;;;;5115765;28;20445;-59
2022/08/10 02:19:01;;;;;;;2.90;2.70;;;;;;;;;;5115651;28;20446;-59
2022/08/10 02:21:29;;;;;;;4.77;3.23;;;;;;;;;;5115425;28;20511;-59
2022/08/10 02:23:59;;;;;;;3.63;3.33;;;;;;;;;;5115595;28;20424;-59
2022/08/10 02:26:26;;;;;;;5.63;3.03;;;;;;;;;;5115552;28;20446;-60
2022/08/10 02:28:53;;;;;;;5.10;3.33;;;;;;;;;;5115505;28;20452;-60
2022/08/10 02:31:22;;;;;;;3.27;3.07;;;;;;;;;;5115345;28;20420;-59
2022/08/10 02:33:50;;;;;;;3.13;2.83;;;;;;;;;;5114985;28;20968;-61
2022/08/10 02:36:19;;;;;;;3.70;2.97;;;;;;;;;;5115148;28;20420;-60
2022/08/10 02:38:48;;;;;;;5.47;3.37;;;;;;;;;;5115266;28;20420;-59
2022/08/10 02:41:19;;;;;;;4.00;3.47;;;;;;;;;;5115145;28;20427;-59
2022/08/10 02:43:47;;;;;;;3.30;3.10;;;;;;;;;;5115093;28;20518;-59
2022/08/10 02:46:17;;;;;;;3.43;3.13;;;;;;;;;;5115010;28;20481;-60
2022/08/10 02:48:45;;;;;;;5.13;3.20;;;;;;;;;;5114730;28;20475;-59
2022/08/10 02:51:14;;;;;;;7.43;4.40;;;;;;;;;;5115109;28;20448;-60
2022/08/10 02:53:43;;;;;;;3.30;3.10;;;;;;;;;;5114319;28;20544;-60
2022/08/10 02:56:11;;;;;;;3.40;3.10;;;;;;;;;;5114874;28;20423;-60
2022/08/10 02:58:41;;;;;;;6.00;3.60;;;;;;;;;;5114797;28;20424;-60
2022/08/10 03:01:11;;;;;;;5.87;3.60;;;;;;;;;;5114630;28;20427;-60
2022/08/10 03:03:40;;;;;;;3.50;3.20;;;;;;;;;;5114703;28;20442;-59
2022/08/10 03:06:09;;;;;;;4.47;3.20;;;;;;;;;;5114724;28;20452;-60
2022/08/10 03:08:39;;;;;;;3.40;3.10;;;;;;;;;;5114651;28;20446;-60
2022/08/10 03:11:07;;;;;;;5.97;3.50;;;;;;;;;;5114833;28;20541;-60
2022/08/10 03:13:36;;;;;;;6.33;3.20;;;;;;;;;;5114377;28;20855;-60
2022/08/10 03:16:05;;;;;;;6.33;4.20;;;;;;;;;;5114482;28;20576;-60
2022/08/10 03:18:32;;;;;;;5.17;3.90;;;;;;;;;;5114479;28;20537;-60
2022/08/10 03:21:00;;;;;;;3.93;3.13;;;;;;;;;;5114375;28;20452;-60
2022/08/10 03:23:27;;;;;;;3.90;3.50;;;;;;;;;;5114266;28;20517;-59
2022/08/10 03:25:56;;;;;;;3.83;3.47;;;;;;;;;;5114170;28;20995;-60
2022/08/10 03:28:23;;;;;;;4.20;3.90;;;;;;;;;;5114187;28;20449;-60
2022/08/10 03:30:51;;;;;;;8.80;4.30;;;;;;;;;;5114227;28;20423;-59
2022/08/10 03:33:20;;;;;;;6.63;3.83;;;;;;;;;;5114160;28;20854;-59
2022/08/10 03:35:47;;;;;;;3.40;3.10;;;;;;;;;;5114024;28;20902;-60
2022/08/10 03:38:14;;;;;;;5.30;3.67;;;;;;;;;;5113994;28;20446;-59
2022/08/10 03:40:42;;;;;;;6.10;3.77;;;;;;;;;;5113878;28;20450;-60
2022/08/10 03:43:09;;;;;;;3.80;3.60;;;;;;;;;;5113815;28;21105;-60
2022/08/10 03:45:36;;;;;;;4.60;3.77;;;;;;;;;;5114012;28;20536;-60
2022/08/10 03:48:04;;;;;;;6.30;4.50;;;;;;;;;;5113698;28;20848;-60
2022/08/10 03:50:33;;;;;;;4.63;3.40;;;;;;;;;;5113831;28;20437;-59
2022/08/10 03:53:00;;;;;;;7.50;4.20;;;;;;;;;;5113564;28;20936;-60
2022/08/10 03:55:27;;;;;;;7.30;3.60;;;;;;;;;;5113625;28;20452;-59
2022/08/10 03:57:54;;;;;;;5.67;3.97;;;;;;;;;;5113809;28;20446;-60
2022/08/10 04:00:21;;;;;;;6.87;4.47;;;;;;;;;;5113703;28;20760;-60
2022/08/10 04:02:48;;;;;;;3.60;3.33;;;;;;;;;;5113595;28;20450;-59
2022/08/10 04:05:16;;;;;;;4.80;3.60;;;;;;;;;;5112657;28;20426;-59
2022/08/10 04:07:44;;;;;;;4.00;3.60;;;;;;;;;;5113335;28;20424;-60
2022/08/10 04:10:13;;;;;;;7.50;4.30;;;;;;;;;;5113646;28;20446;-59
2022/08/10 04:12:39;;;;;;;5.87;4.20;;;;;;;;;;5113450;28;20420;-60
2022/08/10 04:15:07;;;;;;;8.30;3.80;;;;;;;;;;5113303;28;20477;-60
2022/08/10 04:17:34;;;;;;;5.07;4.23;;;;;;;;;;5113367;28;20514;-60
2022/08/10 04:20:01;;;;;;;4.40;4.00;;;;;;;;;;5113320;28;20842;-59
2022/08/10 04:22:28;;;;;;;6.70;4.40;;;;;;;;;;5113121;28;20532;-60
2022/08/10 04:25:01;;;;;;;9.43;5.00;;;;;;;;;;5113465;28;20490;-60
2022/08/10 04:27:27;;;;;;;5.63;4.10;;;;;;;;;;5113134;28;20929;-60
2022/08/10 04:29:55;;;;;;;7.63;3.60;;;;;;;;;;5113191;28;20448;-60
2022/08/10 04:32:22;;;;;;;4.70;4.20;;;;;;;;;;5113081;28;20522;-60
2022/08/10 04:34:49;;;;;;;4.97;4.20;;;;;;;;;;5112876;28;20984;-60
2022/08/10 04:37:18;;;;;;;7.53;3.97;;;;;;;;;;5113271;28;20477;-59
2022/08/10 04:39:45;;;;;;;13.03;4.10;;;;;;;;;;5113250;28;20446;-59
2022/08/10 04:42:14;;;;;;;8.00;3.73;;;;;;;;;;5113179;28;20477;-60
2022/08/10 04:44:42;;;;;;;4.10;3.80;;;;;;;;;;5113183;28;20449;-59
2022/08/10 04:47:09;;;;;;;6.63;5.23;;;;;;;;;;5112881;28;20449;-60
2022/08/10 04:49:36;;;;;;;4.20;3.70;;;;;;;;;;5113014;28;20424;-59
2022/08/10 04:52:03;;;;;;;5.03;4.27;;;;;;;;;;5113177;28;20458;-60
2022/08/10 04:54:30;;;;;;;5.50;4.20;;;;;;;;;;5113257;28;20831;-60
2022/08/10 04:56:57;;;;;;;5.33;3.77;;;;;;;;;;5113146;28;20427;-59
2022/08/10 04:59:25;;;;;;;5.83;3.60;;;;;;;;;;5113057;28;20442;-60
2022/08/10 05:01:52;;;;;;;12.63;3.97;;;;;;;;;;5112888;28;20801;-60
2022/08/10 05:04:19;;;;;;;7.90;3.70;;;;;;;;;;5113040;28;20442;-60
2022/08/10 05:06:46;;;;;;;5.40;4.00;;;;;;;;;;5113022;28;20801;-59
2022/08/10 05:09:13;;;;;;;5.63;4.27;;;;;;;;;;5113090;28;20511;-59
2022/08/10 05:11:40;;;;;;;15.93;3.70;;;;;;;;;;5112894;28;20445;-60
2022/08/10 05:14:07;;;;;;;10.37;4.50;;;;;;;;;;5112911;28;20416;-59
2022/08/10 05:16:35;;;;;;;6.23;3.67;;;;;;;;;;5114878;28;20481;-59
2022/08/10 05:19:02;;;;;;;9.87;3.87;;;;;;;;;;5116882;28;20446;-59
2022/08/10 05:21:29;;;;;;;4.07;3.67;;;;;;;;;;5116870;28;20452;-59
2022/08/10 05:23:56;;;;;;;6.40;4.00;;;;;;;;;;5116669;28;20535;-59
2022/08/10 05:26:23;;;;;;;13.03;5.70;;;;;;;;;;5116534;28;20460;-59
2022/08/10 05:28:49;;;;;;;4.37;3.97;;;;;;;;;;5116263;28;20477;-59
2022/08/10 05:31:16;;;;;;;6.30;4.50;;;;;;;;;;5116101;28;20450;-59
2022/08/10 05:33:45;;;;;;;4.43;4.13;;;;;;;;;;5116178;28;20450;-60
2022/08/10 05:36:12;;;;;;;5.37;4.87;;;;;;;;;;5116420;28;20451;-59
2022/08/10 05:38:39;;;;;;;4.87;3.83;;;;;;;;;;5116377;28;20536;-59
2022/08/10 05:41:06;;;;;;;4.77;4.37;;;;;;;;;;5116001;28;20420;-59
2022/08/10 05:43:33;;;;;;;6.10;5.07;;;;;;;;;;5116015;28;20448;-59
2022/08/10 05:46:00;;;;;;;4.57;4.27;;;;;;;;;;5116290;28;20536;-59
2022/08/10 05:48:27;;;;;;;5.80;4.57;;;;;;;;;;5116103;28;20469;-59
2022/08/10 05:50:56;;;;;;;6.33;4.03;;;;;;;;;;5115984;28;20442;-60
2022/08/10 05:53:23;;;;;;;6.57;4.10;;;;;;;;;;5115948;28;20774;-59
2022/08/10 05:55:50;;;;;;;6.23;4.90;;;;;;;;;;5115744;28;20507;-58
2022/08/10 05:58:16;;;;;;;5.10;4.13;;;;;;;;;;5115776;28;20417;-58
2022/08/10 06:00:46;;;;;;;3.97;3.67;;;;;;;;;;5116123;28;20876;-59
2022/08/10 06:03:15;;;;;;;6.10;4.73;;;;;;;;;;5115652;28;20782;-58
2022/08/10 06:05:43;;;;;;;5.83;4.03;;;;;;;;;;5115660;28;20503;-59
2022/08/10 06:08:13;;;;;;;4.93;4.10;;;;;;;;;;5115485;28;20470;-59
2022/08/10 06:10:41;;;;;;;6.90;4.53;;;;;;;;;;5115467;28;20450;-59
2022/08/10 06:16:09;;;;;;;4.43;4.03;;;;;;;;;;5072601;28;20475;-60
2022/08/10 06:18:36;;;;;;;6.67;4.70;;;;;;;;;;5072650;28;20444;-60
2022/08/10 06:21:04;;;;;;;5.80;4.40;;;;;;;;;;5091678;28;20449;-60
2022/08/10 06:23:33;;;;;;;6.37;3.60;;;;;;;;;;5115493;28;20449;-60
2022/08/10 06:26:00;;;;;;;6.77;4.20;;;;;;;;;;5115387;28;20471;-60
2022/08/10 06:28:29;;;;;;;5.00;3.83;;;;;;;;;;5114356;28;20510;-60
2022/08/10 06:30:57;;;;;;;3.57;3.27;;;;;;;;;;5115269;28;20953;-60
2022/08/10 06:33:25;;;;;;;8.70;4.13;;;;;;;;;;5115174;28;20452;-61
2022/08/10 06:35:53;;;;;;;4.30;3.90;;;;;;;;;;5114988;28;20469;-60
2022/08/10 06:38:21;;;;;;;3.67;3.37;;;;;;;;;;5115207;28;20497;-60
2022/08/10 06:40:50;;;;;;;3.57;3.27;;;;;;;;;;5115191;28;20451;-60
2022/08/10 06:43:19;;;;;;;4.20;3.80;;;;;;;;;;5114907;28;20888;-60
2022/08/10 06:45:47;;;;;;;7.50;4.30;;;;;;;;;;5114917;28;20522;-60
2022/08/10 06:48:18;;;;;;;3.90;3.00;;;;;;;;;;5114543;28;20476;-60
2022/08/10 06:50:46;;;;;;;3.63;3.33;;;;;;;;;;5114763;28;20932;-60
2022/08/10 06:53:14;;;;;;;4.33;3.97;;;;;;;;;;5114567;28;20928;-60
2022/08/10 06:55:43;;;;;;;3.07;2.93;;;;;;;;;;5114797;28;20832;-60
2022/08/10 06:58:12;;;;;;;4.53;3.80;;;;;;;;;;5115102;28;20959;-60
2022/08/10 07:00:41;;;;;;;5.33;3.30;;;;;;;;;;5114635;28;20532;-60
2022/08/10 07:03:09;;;;;;;6.17;4.20;;;;;;;;;;5114794;28;20558;-60
2022/08/10 07:05:38;;;;;;;4.57;3.40;;;;;;;;;;5114627;28;20449;-60
2022/08/10 07:08:06;;;;;;;3.87;3.53;;;;;;;;;;5114627;28;20882;-60
2022/08/10 07:10:33;;;;;;;3.83;3.53;;;;;;;;;;5114930;28;20532;-60
2022/08/10 07:13:01;;;;;;;3.10;2.87;;;;;;;;;;5114317;28;20449;-61
2022/08/10 07:15:30;;;;;;;2.93;2.73;;;;;;;;;;5114133;28;20476;-60
2022/08/10 07:17:57;;;;;;;3.47;3.17;;;;;;;;;;5114308;28;20481;-60
2022/08/10 07:20:25;;;;;;;6.63;3.27;;;;;;;;;;5119458;27;20882;-63
2022/08/10 07:22:52;;;;;;;3.80;3.50;;;;;;;;;;5134768;27;20539;-64
2022/08/10 07:25:21;;;;;;;3.57;3.20;;;;;;;;;;5134738;27;20837;-62
2022/08/10 07:27:48;;;;;;;4.87;3.13;;;;;;;;;;5134709;27;20526;-64
2022/08/10 07:30:16;;;;;;;3.80;3.20;;;;;;;;;;5134737;27;20479;-62
2022/08/10 07:32:44;;;;;;;3.37;3.07;;;;;;;;;;5134597;27;20444;-63
2022/08/10 07:35:12;;;;;;;3.63;3.33;;;;;;;;;;5134356;27;20540;-64
2022/08/10 07:37:41;;;;;;;4.17;3.77;;;;;;;;;;5134471;27;20456;-63
2022/08/10 07:40:08;;;;;;;2.93;2.73;;;;;;;;;;5134239;27;20876;-64
2022/08/10 07:42:36;;;;;;;3.33;3.03;;;;;;;;;;5134322;27;20492;-64
2022/08/10 07:45:04;;;;;;;4.27;3.70;;;;;;;;;;5134517;27;20440;-64
2022/08/10 07:47:32;;;;;;;6.93;3.00;;;;;;;;;;5134203;27;20564;-64
2022/08/10 07:50:03;;;;;;;3.13;2.93;;;;;;;;;;5134221;27;20440;-64
2022/08/10 07:52:33;;;;;;;3.47;3.17;;;;;;;;;;5134080;27;20544;-63
2022/08/10 07:55:02;;;;;;;3.57;3.27;;;;;;;;;;5133991;27;20451;-61
2022/08/10 07:57:30;;;;;;;3.40;3.10;;;;;;;;;;5134005;27;20486;-61
2022/08/10 07:59:58;;;;;;;4.27;2.67;;;;;;;;;;5133634;27;20924;-62
2022/08/10 08:02:27;;;;;;;5.00;3.10;;;;;;;;;;5133029;27;20483;-62
2022/08/10 08:04:55;;;;;;;4.63;2.63;;;;;;;;;;5123189;27;20544;-62
2022/08/10 08:07:23;;;;;;;3.80;2.87;;;;;;;;;;5133739;27;20978;-62
2022/08/10 08:09:51;;;;;;;2.80;2.60;;;;;;;;;;5133999;27;20448;-62
2022/08/10 08:12:18;;;;;;;3.30;3.00;;;;;;;;;;5133725;27;20527;-62
2022/08/10 08:14:46;;;;;;;3.20;3.00;;;;;;;;;;5116187;27;20453;-61
2022/08/10 08:17:13;;;;;;;3.53;2.80;;;;;;;;;;5113131;28;20489;-59
2022/08/10 08:19:41;;;;;;;5.90;2.60;;;;;;;;;;5112554;28;20473;-63
2022/08/10 08:22:10;;;;;;;3.47;2.47;;;;;;;;;;5113454;28;20536;-59
2022/08/10 08:24:38;;;;;;;2.50;2.30;;;;;;;;;;5112932;28;20596;-61
2022/08/10 08:27:06;;;;;;;3.23;2.57;;;;;;;;;;5113189;28;20544;-62
2022/08/10 08:29:34;;;;;;;3.30;2.10;;;;;;;;;;5113115;28;20964;-61
2022/08/10 08:32:01;;;;;;;2.93;2.63;;;;;;;;;;5113634;28;20456;-62
2022/08/10 08:34:28;;;;;;;6.20;2.40;;;;;;;;;;5112949;28;20445;-62
2022/08/10 08:36:55;;;;;;;3.00;2.10;;;;;;;;;;5113202;28;20568;-60
2022/08/10 08:39:22;;;;;;;2.47;2.03;;;;;;;;;;5113141;28;20544;-63
2022/08/10 08:41:59;;;;;;;2.17;2.07;;;;;;;;;;5112978;28;20452;-61
2022/08/10 08:44:32;;;;;;;1.97;1.83;;;;;;;;;;5112870;28;20455;-63
2022/08/10 08:47:13;;;;;;;3.10;2.27;;;;;;;;;;5112182;28;20445;-61
2022/08/10 08:49:49;;;;;;;2.23;2.13;;;;;;;;;;5113900;27;20456;-62
2022/08/10 08:52:28;;;;;;;4.33;2.00;;;;;;;;;;5128059;27;20443;-60
2022/08/10 08:55:00;;;;;;;1.97;1.87;;;;;;;;;;5137538;27;20451;-61
2022/08/10 08:57:33;;;;;;;2.10;1.90;;;;;;;;;;5127303;27;20548;-61
2022/08/10 09:00:04;;;;;;;1.80;1.50;;;;;;;;;;5136418;27;20965;-59
2022/08/10 09:02:39;;;;;;;2.27;1.77;;;;;;;;;;5137439;27;20444;-59
2022/08/10 09:05:17;;;;;;;1.33;1.17;;;;;;;;;;5137482;27;20487;-59
2022/08/10 09:07:51;;;;;;;2.83;1.73;;;;;;;;;;5137247;27;20535;-59
2022/08/10 09:10:21;;;;;;;1.70;1.60;;;;;;;;;;5137401;27;20444;-61
2022/08/10 09:12:53;;;;;;;1.60;1.50;;;;;;;;;;5136927;27;20965;-61
2022/08/10 09:15:26;;;;;;;3.57;1.73;;;;;;;;;;5137226;27;20539;-60
2022/08/10 09:17:58;;;;;;;2.40;1.90;;;;;;;;;;5135901;27;20484;-59
2022/08/10 09:20:31;;;;;;;3.60;1.97;;;;;;;;;;5136774;27;20225;-61
2022/08/10 09:23:02;;;;;;;2.53;2.33;;;;;;;;;;5137038;27;20448;-62
2022/08/10 09:25:33;;;;;;;3.20;2.00;;;;;;;;;;5137249;27;20444;-61
2022/08/10 09:28:03;;;;;;;3.47;1.97;;;;;;;;;;5137017;27;20890;-59
2022/08/10 09:30:32;;;;;;;2.23;2.07;;;;;;;;;;5137056;27;20447;-59
2022/08/10 09:33:05;;;;;;;3.10;2.50;;;;;;;;;;5136814;27;20444;-59
2022/08/10 09:35:36;;;;;;;2.03;1.80;;;;;;;;;;5137060;27;20878;-60
2022/08/10 09:38:07;;;;;;;2.20;2.00;;;;;;;;;;5121599;27;20477;-61
2022/08/10 09:40:38;;;;;;;1.93;1.83;;;;;;;;;;5116226;28;20507;-59
2022/08/10 09:43:12;;;;;;;1.50;1.37;;;;;;;;;;5116083;28;20456;-59
2022/08/10 09:45:42;;;;;;;2.60;1.37;;;;;;;;;;5116432;28;20545;-59
2022/08/10 09:48:11;;;;;;;1.70;1.60;;;;;;;;;;5116181;28;20568;-60
2022/08/10 09:50:43;;;;;;;2.80;1.77;;;;;;;;;;5116103;28;20452;-60
2022/08/10 09:53:17;;;;;;;2.87;1.60;;;;;;;;;;5115990;28;20442;-61
2022/08/10 09:55:48;;;;;;;2.80;1.80;;;;;;;;;;5115824;28;20536;-57
2022/08/10 09:58:35;;;;;;;3.10;1.67;;;;;;;;;;5115910;28;20540;-59
2022/08/10 10:01:03;;;;;;;3.40;1.63;;;;;;;;;;5115810;28;20532;-61
2022/08/10 10:03:32;;;;;;;5.33;1.50;;;;;;;;;;5114364;28;20948;-57
2022/08/10 10:06:03;;;;;;;1.80;1.70;;;;;;;;;;5115657;28;20446;-58
2022/08/10 10:08:32;;;;;;;1.50;1.40;;;;;;;;;;5123105;27;20560;-58
2022/08/10 10:11:08;;;;;;;4.40;1.90;;;;;;;;;;5135951;27;20444;-60
2022/08/10 10:13:41;;;;;;;1.93;1.43;;;;;;;;;;5136170;27;20455;-59
2022/08/10 10:16:14;;;;;;;2.70;1.63;;;;;;;;;;5135903;27;20460;-60
2022/08/10 10:18:42;;;;;;;2.00;1.90;;;;;;;;;;5135943;27;20453;-58
2022/08/10 10:21:12;;;;;;;1.77;1.43;;;;;;;;;;5136228;27;20451;-59
2022/08/10 10:23:43;;;;;;;2.23;1.60;;;;;;;;;;5135911;27;20501;-60
2022/08/10 10:26:15;;;;;;;1.97;1.60;;;;;;;;;;5135914;27;20445;-60
2022/08/10 10:28:54;;;;;;;1.73;1.60;;;;;;;;;;5135947;27;20830;-62
2022/08/10 10:31:26;;;;;;;3.17;1.80;;;;;;;;;;5135787;27;20466;-59
2022/08/10 10:33:57;;;;;;;1.80;1.67;;;;;;;;;;5135808;27;20452;-59
2022/08/10 10:36:25;;;;;;;1.50;1.40;;;;;;;;;;5124379;27;20465;-59
2022/08/10 10:38:53;;;;;;;2.90;1.77;;;;;;;;;;5114352;28;20444;-57
2022/08/10 10:41:26;;;;;;;1.67;1.57;;;;;;;;;;5114972;28;20716;-58
2022/08/10 10:44:00;;;;;;;2.30;1.60;;;;;;;;;;5114680;28;20448;-59
2022/08/10 10:46:45;;;;;;;1.63;1.40;;;;;;;;;;5114922;27;20452;-61
2022/08/10 10:49:19;;;;;;;1.33;1.20;;;;;;;;;;5114715;28;20475;-61
2022/08/10 10:51:50;;;;;;;2.10;1.40;;;;;;;;;;5114794;27;20541;-59
2022/08/10 10:54:22;;;;;;;4.00;2.30;;;;;;;;;;5114849;28;20441;-59
2022/08/10 10:56:54;;;;;;;1.63;1.50;;;;;;;;;;5119574;27;21053;-59
2022/08/10 10:59:27;;;;;;;1.67;1.57;;;;;;;;;;5114777;27;20441;-59
2022/08/10 11:01:56;;;;;;;1.83;1.23;;;;;;;;;;5114704;28;20468;-63
2022/08/10 11:04:24;;;;;;;1.60;1.50;;;;;;;;;;5114431;28;20944;-62
2022/08/10 11:06:57;;;;;;;1.93;1.20;;;;;;;;;;5114784;28;20936;-62
2022/08/10 11:09:29;;;;;;;2.30;1.50;;;;;;;;;;5114722;28;20895;-62
2022/08/10 11:11:59;;;;;;;1.90;1.70;;;;;;;;;;5114765;28;20446;-60
2022/08/10 11:14:30;;;;;;;1.23;1.13;;;;;;;;;;5113893;28;20442;-61
2022/08/10 11:17:00;;;;;;;1.90;1.30;;;;;;;;;;5114018;28;20491;-61
2022/08/10 11:19:30;;;;;;;1.73;1.60;;;;;;;;;;5114791;28;20453;-61
2022/08/10 11:22:08;;;;;;;3.43;2.20;;;;;;;;;;5114409;28;20544;-61
2022/08/10 11:24:39;;;;;;;1.80;1.70;;;;;;;;;;5121235;27;20567;-61
2022/08/10 11:27:09;;;;;;;1.60;1.40;;;;;;;;;;5131986;27;20451;-60
2022/08/10 11:29:41;;;;;;;1.80;1.70;;;;;;;;;;5134485;27;20449;-60
2022/08/10 11:32:13;;;;;;;2.83;1.60;;;;;;;;;;5134306;27;20986;-60
2022/08/10 11:34:47;;;;;;;3.37;1.60;;;;;;;;;;5134863;27;20448;-61
2022/08/10 11:37:19;;;;;;;1.73;1.43;;;;;;;;;;5134502;27;20900;-62
2022/08/10 11:39:49;;;;;;;3.13;1.57;;;;;;;;;;5134473;27;20812;-62
2022/08/10 11:42:20;;;;;;;2.27;1.40;;;;;;;;;;5134657;27;20880;-61
2022/08/10 11:44:53;;;;;;;2.47;1.50;;;;;;;;;;5134502;27;20460;-63
2022/08/10 11:47:22;;;;;;;2.50;1.60;;;;;;;;;;5134328;27;20476;-62
2022/08/10 11:49:52;;;;;;;1.30;1.20;;;;;;;;;;5134283;27;20891;-62
2022/08/10 11:52:21;;;;;;;2.10;2.00;;;;;;;;;;5134212;27;20445;-58
2022/08/10 11:54:52;;;;;;;1.53;1.40;;;;;;;;;;5134202;27;20541;-58
2022/08/10 11:57:21;;;;;;;1.70;1.60;;;;;;;;;;5130801;27;20493;-60
2022/08/10 11:59:57;;;;;;;2.03;1.73;;;;;;;;;;5116411;27;20442;-60
2022/08/10 12:02:25;;;;;;;2.80;1.90;;;;;;;;;;5118510;27;20511;-60
2022/08/10 12:04:53;;;;;;;3.27;1.37;;;;;;;;;;5129908;27;20441;-64
2022/08/10 12:07:21;;;;;;;2.90;1.53;;;;;;;;;;5132889;27;20501;-64
2022/08/10 12:09:49;;;;;;;1.80;1.70;;;;;;;;;;5133976;27;20539;-64
2022/08/10 12:12:16;;;;;;;1.93;1.63;;;;;;;;;;5134066;27;20812;-64
2022/08/10 12:14:46;;;;;;;2.47;1.73;;;;;;;;;;5134027;27;20451;-64
2022/08/10 12:17:17;;;;;;;2.40;1.80;;;;;;;;;;5134053;27;20825;-64
2022/08/10 12:19:47;;;;;;;1.53;1.43;;;;;;;;;;5134468;27;20455;-65
2022/08/10 12:22:17;;;;;;;2.40;1.57;;;;;;;;;;5133808;27;20459;-64
2022/08/10 12:24:47;;;;;;;1.47;1.37;;;;;;;;;;5133605;27;20456;-64
2022/08/10 12:27:16;;;;;;;3.20;1.47;;;;;;;;;;5133510;27;20818;-64
2022/08/10 12:29:45;;;;;;;3.03;1.80;;;;;;;;;;5133701;28;20539;-65
2022/08/10 12:32:13;;;;;;;1.47;1.37;;;;;;;;;;5133863;28;20444;-65
2022/08/10 12:34:44;;;;;;;2.10;1.90;;;;;;;;;;5133927;28;20999;-65
2022/08/10 12:37:15;;;;;;;2.50;1.30;;;;;;;;;;5133747;28;20831;-64
2022/08/10 12:39:50;;;;;;;1.97;1.37;;;;;;;;;;5133721;28;20448;-65
2022/08/10 12:42:20;;;;;;;4.00;1.63;;;;;;;;;;5133557;28;20811;-65
2022/08/10 12:44:49;;;;;;;4.90;1.73;;;;;;;;;;5134042;28;20449;-65
2022/08/10 12:47:20;;;;;;;1.70;1.60;;;;;;;;;;5133478;28;20480;-65
2022/08/10 12:49:52;;;;;;;1.70;1.60;;;;;;;;;;5133647;28;20853;-65
2022/08/10 12:52:20;;;;;;;2.60;1.50;;;;;;;;;;5133692;28;20449;-64
2022/08/10 12:54:47;;;;;;;3.27;1.77;;;;;;;;;;5133448;28;20932;-65
2022/08/10 12:57:16;;;;;;;1.40;1.30;;;;;;;;;;5133588;28;20502;-65
2022/08/10 12:59:44;;;;;;;4.00;1.60;;;;;;;;;;5133597;28;20544;-65
2022/08/10 13:02:14;;;;;;;3.23;2.00;;;;;;;;;;5133874;28;20448;-65
2022/08/10 13:04:42;;;;;;;1.83;1.50;;;;;;;;;;5133554;28;20444;-65
2022/08/10 13:07:11;;;;;;;2.20;1.50;;;;;;;;;;5133482;28;20453;-65
2022/08/10 13:09:38;;;;;;;3.03;1.43;;;;;;;;;;5133350;27;20472;-65
2022/08/10 13:12:06;;;;;;;4.10;1.70;;;;;;;;;;5133530;28;20441;-65
2022/08/10 13:14:35;;;;;;;2.20;2.00;;;;;;;;;;5133444;28;20539;-65
2022/08/10 13:17:03;;;;;;;1.40;1.30;;;;;;;;;;5133362;28;20472;-64
2022/08/10 13:19:35;;;;;;;2.43;1.50;;;;;;;;;;5133287;28;20455;-65
2022/08/10 13:22:02;;;;;;;1.80;1.70;;;;;;;;;;5133461;28;20445;-65
2022/08/10 13:24:33;;;;;;;3.40;2.10;;;;;;;;;;5133281;28;21010;-65
2022/08/10 13:27:01;;;;;;;2.23;1.70;;;;;;;;;;5133635;28;20448;-65
2022/08/10 13:29:30;;;;;;;2.90;1.93;;;;;;;;;;5133286;28;20531;-65
2022/08/10 13:31:58;;;;;;;1.60;1.37;;;;;;;;;;5133128;28;20479;-65
2022/08/10 13:34:27;;;;;;;2.70;1.50;;;;;;;;;;5133078;28;20444;-65
2022/08/10 13:36:55;;;;;;;1.73;1.60;;;;;;;;;;5134384;27;20807;-65
2022/08/10 13:39:24;;;;;;;2.27;1.50;;;;;;;;;;5136984;27;20474;-65
2022/08/10 13:41:53;;;;;;;1.43;1.23;;;;;;;;;;5136854;27;20441;-64
2022/08/10 13:44:29;;;;;;;4.00;1.50;;;;;;;;;;5136757;27;20444;-65
2022/08/10 13:46:56;;;;;;;2.90;1.50;;;;;;;;;;5136487;27;20455;-65
2022/08/10 13:49:24;;;;;;;3.27;1.60;;;;;;;;;;5136891;27;20460;-65
2022/08/10 13:51:51;;;;;;;1.43;1.30;;;;;;;;;;5136707;27;20451;-65
2022/08/10 13:54:18;;;;;;;2.30;1.60;;;;;;;;;;5136682;27;20445;-65
2022/08/10 13:56:47;;;;;;;2.30;1.47;;;;;;;;;;5136686;27;20796;-65
2022/08/10 13:59:15;;;;;;;2.23;1.90;;;;;;;;;;5136479;27;20481;-66
2022/08/10 14:01:46;;;;;;;1.50;1.40;;;;;;;;;;5136306;27;20444;-65
2022/08/10 14:04:14;;;;;;;1.80;1.70;;;;;;;;;;5136508;27;20451;-65
2022/08/10 14:06:42;;;;;;;1.90;1.80;;;;;;;;;;5136243;27;20931;-65
2022/08/10 14:09:11;;;;;;;1.40;1.30;;;;;;;;;;5136216;27;20447;-65
2022/08/10 14:11:38;;;;;;;1.60;1.50;;;;;;;;;;5136210;27;20811;-65
2022/08/10 14:14:07;;;;;;;1.63;1.30;;;;;;;;;;5136097;27;20481;-65
2022/08/10 14:16:41;;;;;;;1.40;1.30;;;;;;;;;;5136590;27;20448;-65
2022/08/10 14:19:11;;;;;;;2.60;1.30;;;;;;;;;;5135916;27;20998;-65
2022/08/10 14:21:39;;;;;;;2.50;1.70;;;;;;;;;;5136119;27;20688;-65
2022/08/10 14:24:06;;;;;;;2.53;1.60;;;;;;;;;;5135982;27;20455;-65
2022/08/10 14:26:34;;;;;;;1.30;1.20;;;;;;;;;;5135896;27;20777;-65
2022/08/10 14:29:03;;;;;;;1.80;1.30;;;;;;;;;;5135798;27;20448;-65
2022/08/10 14:31:32;;;;;;;1.70;1.60;;;;;;;;;;5135461;27;20998;-65
2022/08/10 14:34:02;;;;;;;2.03;1.10;;;;;;;;;;5135861;27;20453;-65
2022/08/10 14:36:32;;;;;;;1.70;1.50;;;;;;;;;;5135855;27;20445;-65
2022/08/10 14:39:01;;;;;;;3.37;1.50;;;;;;;;;;5135574;27;20476;-65
2022/08/10 14:41:28;;;;;;;3.80;1.70;;;;;;;;;;5135954;27;20536;-65
2022/08/10 14:43:57;;;;;;;1.47;1.37;;;;;;;;;;5135781;27;20776;-65
2022/08/10 14:46:27;;;;;;;1.80;1.50;;;;;;;;;;5135657;27;20444;-65
2022/08/10 14:48:55;;;;;;;1.57;1.47;;;;;;;;;;5134953;27;20857;-65
2022/08/10 14:51:29;;;;;;;1.60;1.50;;;;;;;;;;5135506;27;20528;-65
2022/08/10 14:53:57;;;;;;;2.40;1.50;;;;;;;;;;5135626;27;20824;-65
2022/08/10 14:56:25;;;;;;;1.40;1.30;;;;;;;;;;5135610;27;20936;-65
2022/08/10 14:58:53;;;;;;;2.67;2.47;;;;;;;;;;5135364;27;20523;-65